Hlavní strana
METAR-TAF:

METAR-TAF

Letiště :

Letiště Náměšť nad Oslavou

Náměšť nad Oslavou, Česká republika

zeměpisná šířka: 49-09-57N, zeměpisná délka: 16-07-30E, výška: 472 m

Aktuální stav počasí

Zpráva byla vytvořena před 48 minutami, v 01:00 UTC
Severní vítr 5 kt
Teplota 20°C
Vlhkost vzduchu 60%
Tlak 1021 hPa
Viditelnost 10 km a více
Žádná oblačnost pod 1500 m, nevyskytují se cumulonimby.

METAR: LKNA 190100Z 01005KT CAVOK 20/12 Q1021 RMK BLU

Čas: 03:48 (01:48 UTC)

Předpověď počasí

Zpráva byla vytvořena před 2 hodinami a 48 minutami, v 23:00 UTC
Předpověď platná od 19 v 00 UTC do 20 v 00 UTC
vítr z různých směrů 2 kt
Viditelnost 10 km a více
Žádná oblačnost pod 1500 m, nevyskytují se cumulonimby.
Pravděpodobnost 30% :
Dočasný
od 19 v 12 UTC do 19 v 17 UTC
Severoseverozápadní vítr 12 kt
Polojasno ve výšce 4500 ft, Vertikální cumulus.
dešťové přeháňky

TAF: LKNA 182300Z 1900/2000 VRB02KT CAVOK PROB30 TEMPO 1912/1917 33012KT SHRA SCT045TCU

Stav a předpovědi počasí z více než 4 000 letišť (zprávy METAR a TAF).

Červené a žluté tečky na mapě představují dostupné meteorologické stanice.

Když kurzor umístíte na tečku, zobrazí se název stanice.

Pak kliknutím zobrazíte stav a předpověď počasí.

Chcete-li změnit mapu, kliknutím na zelené tlačítko se znaménkem +mapu přiblížíte, kliknutím na zelené tlačítko se znaménkem – mapu oddálíte a kliknutím na zelené šipky přejdete na sousední mapy.


METAR-TAF: